AV - LB | Pilotos de la V.A




 METAR AND TAF INFORMATION
METAR FOR LYTV
ADDS - METARS form results

(0204 UTC 19 May 2021)
Data provider http://aviationweather.gov/metar/data/
 
Forecast for: LYTV (TIVAT , ME)
Text: TAF LYTV 181700Z 1818/1918 16005KT CAVOK TX23/1913Z TN12/1902Z
Forecast period: 1800 UTC 18 May 2021 to 0800 UTC 19 May 2021
Forecast type: FROM: standard forecast or significant change
Winds: from the SSE (160 degrees) at 6 MPH (5 knots; 2.6 m/s)
Visibility: 6 or more miles (10+ km)
Ceiling: unknown
Clouds: missing
Weather: no significant weather forecast for this period
Text: BECMG 1908/1910 22012KT
Forecast period: 0800 to 1800 UTC 19 May 2021
Forecast type: BECOMING: Conditions expected to become as follows by 1000 UTC 19 May 2021
Winds: from the SW (220 degrees) at 14 MPH (12 knots; 6.2 m/s)
Visibility: 6 or more miles (10+ km)
Ceiling: unknown
Clouds: missing
Weather: no significant weather forecast for this period

 AIRPORT MAP

 RUNWAY INFORMATION
Runway 14 Runway length 8208 ft Runway width 148 ft
Runway elevation 7 ft Runway displaced threshold 0 ft Runway heading 139
Runway 32 Runway length 8208 ft Runway width 148 ft
Runway elevation 16 ft Runway displaced threshold 0 ft Runway heading 319

 AIRPORT FREQUENCIES
Type ARR Name APP Frequency 118 MHZ
Type TWR Name TWR Frequency 118 MHZ

 AIRPORT NEAR NAVIGATION AIDS
Type NDB Name Tivat Frequency 345 KHZ